Time;durP1;ratioP1;P1;durP2;ratioP2;P2;SDS_P1;SDS_P2;PMS_P1;PMS_P2;Temp;Humidity;BMP_temperature;BMP_pressure;BME280_temperature;BME280_humidity;BME280_pressure;Samples;Min_cycle;Max_cycle;Signal;HPM_P1;HPM_P2
2022/12/24 01:59:36;;;;;;;37.88;18.25;;;;;;;3.25;83.62;99737.34;6181052;22;20147;-67
2022/12/24 02:22:28;;;;;;;44.28;19.83;;;;;;;3.25;83.54;99783.22;6226335;22;20016;-70
2022/12/24 02:25:14;;;;;;;41.38;19.88;;;;;;;3.32;83.47;99783.53;6239738;22;20023;-68
2022/12/24 02:27:52;;;;;;;38.10;20.33;;;;;;;3.22;83.33;99787.97;6220460;22;20023;-68
2022/12/24 02:30:30;;;;;;;35.20;19.63;;;;;;;3.17;83.57;99795.47;6239755;22;20020;-70
2022/12/24 02:33:02;;;;;;;39.88;20.67;;;;;;;3.41;83.70;99806.56;6238127;23;20035;-69
2022/12/24 02:35:46;;;;;;;40.42;19.52;;;;;;;3.31;83.04;99806.56;6237976;22;20008;-70
2022/12/24 02:38:27;;;;;;;37.15;20.50;;;;;;;3.26;83.42;99810.56;6239234;22;20027;-67
2022/12/24 02:41:00;;;;;;;52.17;21.67;;;;;;;3.24;83.62;99812.50;6236774;23;20029;-69
2022/12/24 02:43:37;;;;;;;39.90;21.08;;;;;;;3.21;83.60;99813.63;6239322;23;20016;-70
2022/12/24 02:46:10;;;;;;;39.58;19.92;;;;;;;3.13;83.67;99808.16;6238506;22;20012;-69
2022/12/24 02:48:41;;;;;;;43.67;20.77;;;;;;;3.17;83.65;99830.78;6220134;22;20009;-68
2022/12/24 02:51:09;;;;;;;41.80;21.35;;;;;;;3.45;83.11;99828.31;6204196;22;20005;-67
2022/12/24 02:53:36;;;;;;;42.35;23.00;;;;;;;3.28;83.38;99828.03;6209883;22;20025;-68
2022/12/24 02:56:16;;;;;;;42.17;21.42;;;;;;;3.38;83.24;99834.19;6209263;22;20028;-69
2022/12/24 02:59:38;;;;;;;43.90;22.52;;;;;;;3.43;83.06;99838.25;6208278;22;20009;-68
2022/12/24 03:02:43;;;;;;;36.22;20.80;;;;;;;3.37;82.92;99835.16;6122250;22;20009;-69
2022/12/24 03:05:34;;;;;;;49.05;23.60;;;;;;;3.37;82.78;99827.19;6176251;22;20005;-69
2022/12/24 03:08:11;;;;;;;44.65;22.67;;;;;;;3.23;83.31;99838.19;6209639;22;20025;-69
2022/12/24 03:10:51;;;;;;;43.97;23.15;;;;;;;3.34;83.39;99838.09;6210238;22;20021;-67
2022/12/24 03:13:19;;;;;;;42.10;22.08;;;;;;;3.22;83.08;99847.13;6208398;22;20005;-69
2022/12/24 03:15:47;;;;;;;45.42;23.15;;;;;;;3.34;83.09;99846.06;6203617;22;20012;-68
2022/12/24 03:18:18;;;;;;;49.70;24.10;;;;;;;3.35;83.28;99849.53;6224893;22;20031;-68
2022/12/24 03:20:51;;;;;;;46.45;23.80;;;;;;;3.36;83.17;99848.56;6209097;22;20017;-68
2022/12/24 03:23:18;;;;;;;46.75;22.52;;;;;;;3.37;82.98;99844.91;6210102;22;20021;-70
2022/12/24 03:25:45;;;;;;;48.10;24.15;;;;;;;3.25;82.92;99851.31;6209525;22;20005;-67
2022/12/24 03:28:14;;;;;;;42.33;23.63;;;;;;;3.28;83.49;99851.06;6198402;22;20012;-69
2022/12/24 03:30:43;;;;;;;45.95;23.33;;;;;;;3.29;82.95;99856.22;6209011;22;20005;-68
2022/12/24 03:33:11;;;;;;;43.30;23.83;;;;;;;3.27;83.18;99868.75;6209056;22;20008;-67
2022/12/24 03:35:37;;;;;;;44.40;22.92;;;;;;;3.14;83.28;99865.50;6208690;22;20021;-67
2022/12/24 03:38:04;;;;;;;39.05;22.42;;;;;;;3.03;83.67;99865.56;6209574;23;20035;-70
2022/12/24 03:40:30;;;;;;;42.03;22.50;;;;;;;3.08;83.15;99876.63;6209598;22;20092;-69
2022/12/24 03:42:57;;;;;;;49.08;23.67;;;;;;;3.03;82.91;99876.19;6208507;22;20048;-70
2022/12/24 03:45:24;;;;;;;49.42;23.85;;;;;;;3.11;82.94;99885.16;6208220;22;20028;-69
2022/12/24 03:47:51;;;;;;;43.33;23.30;;;;;;;3.13;83.12;99891.19;6208693;22;20027;-69
2022/12/24 03:50:17;;;;;;;43.67;23.70;;;;;;;3.20;82.53;99894.09;6208304;22;20052;-70
2022/12/24 03:52:44;;;;;;;43.65;22.80;;;;;;;3.39;81.99;99898.66;6223279;22;20016;-68
2022/12/24 03:55:10;;;;;;;44.47;22.40;;;;;;;3.14;82.86;99895.50;6217069;22;20065;-68
2022/12/24 04:03:01;;;;;;;42.65;23.02;;;;;;;3.08;83.03;99903.97;6182654;22;20030;-69
2022/12/24 04:05:27;;;;;;;50.78;23.58;;;;;;;2.94;83.43;99908.78;6209193;22;20028;-68
2022/12/24 04:21:17;;;;;;;44.72;23.75;;;;;;;3.00;83.09;99916.22;6233670;22;20027;-68
2022/12/24 04:23:44;;;;;;;47.03;23.80;;;;;;;2.95;82.68;99910.44;6238908;22;20011;-67
2022/12/24 04:26:12;;;;;;;45.42;23.65;;;;;;;2.94;82.58;99914.06;6239153;22;20008;-68
2022/12/24 04:28:40;;;;;;;48.63;25.08;;;;;;;2.97;82.90;99921.78;6237512;23;20036;-69
2022/12/24 04:31:10;;;;;;;48.00;23.33;;;;;;;2.90;82.74;99927.59;6239069;22;20025;-71
2022/12/24 04:33:37;;;;;;;45.65;23.98;;;;;;;3.05;82.44;99935.19;6238804;22;20008;-70
2022/12/24 04:36:05;;;;;;;46.58;23.45;;;;;;;2.99;82.76;99941.00;6238974;22;20033;-70
2022/12/24 04:57:19;;;;;;;50.75;26.20;;;;;;;3.12;82.21;99966.34;6193321;22;20007;-69
2022/12/24 04:59:45;;;;;;;50.17;25.65;;;;;;;2.99;82.29;99970.16;6204661;22;20008;-68
2022/12/24 05:02:12;;;;;;;48.63;24.25;;;;;;;3.08;82.71;99967.56;6192158;22;20013;-68
2022/12/24 05:04:39;;;;;;;45.72;25.13;;;;;;;3.15;82.23;99967.88;6208843;22;20009;-69
2022/12/24 05:07:05;;;;;;;47.40;24.90;;;;;;;3.25;82.12;99970.59;6209214;23;20048;-70
2022/12/24 05:09:32;;;;;;;50.33;26.95;;;;;;;3.24;82.03;99971.56;6208541;22;20021;-71
2022/12/24 05:11:58;;;;;;;55.22;27.38;;;;;;;3.20;81.58;99963.03;6208436;22;20029;-71
2022/12/24 05:14:25;;;;;;;50.33;27.30;;;;;;;3.28;81.88;99968.53;6207891;22;20029;-71
2022/12/24 05:16:52;;;;;;;50.55;25.90;;;;;;;3.19;81.78;99965.81;6208613;22;20009;-69
2022/12/24 05:19:18;;;;;;;52.63;25.95;;;;;;;3.07;82.51;99971.19;6211624;22;20023;-70
2022/12/24 05:27:02;;;;;;;54.70;26.90;;;;;;;3.18;82.18;99967.63;6204130;22;20017;-69
2022/12/24 05:29:29;;;;;;;53.88;27.98;;;;;;;3.15;82.36;99975.84;6210150;22;20032;-70
2022/12/24 05:31:55;;;;;;;57.45;28.02;;;;;;;2.97;82.43;99975.59;6210440;22;20013;-70
2022/12/24 05:34:22;;;;;;;60.17;27.52;;;;;;;3.09;81.75;99971.88;6209964;22;20032;-68
2022/12/24 05:36:48;;;;;;;59.25;28.77;;;;;;;3.14;82.51;99969.72;6209984;23;20016;-68
2022/12/24 05:39:17;;;;;;;56.00;28.55;;;;;;;3.17;81.95;99975.69;6210031;22;20036;-68
2022/12/24 05:41:44;;;;;;;56.45;28.85;;;;;;;3.15;82.25;99973.19;6209268;22;20043;-67
2022/12/24 05:44:11;;;;;;;51.65;27.58;;;;;;;3.14;81.59;99976.81;6209909;22;20005;-68
2022/12/24 05:46:38;;;;;;;58.30;28.80;;;;;;;3.20;82.15;99988.69;6211277;22;20005;-69
2022/12/24 05:49:05;;;;;;;55.90;27.98;;;;;;;3.30;81.92;99990.44;6211532;22;20043;-69
2022/12/24 05:51:31;;;;;;;58.65;29.83;;;;;;;3.22;81.46;100003.50;6209582;22;20009;-70
2022/12/24 05:53:58;;;;;;;56.40;28.73;;;;;;;3.17;82.03;99989.81;6209845;22;21494;-71
2022/12/24 05:56:25;;;;;;;59.30;29.95;;;;;;;3.31;81.56;99994.78;6210481;23;20037;-69
2022/12/24 05:58:52;;;;;;;57.92;30.13;;;;;;;3.29;81.64;99998.53;6210571;23;20005;-69
2022/12/24 06:01:20;;;;;;;59.47;30.70;;;;;;;3.14;81.49;100011.28;6208413;23;20025;-70
2022/12/24 06:03:48;;;;;;;57.90;30.23;;;;;;;3.33;81.56;100011.38;6207945;22;20016;-70
2022/12/24 06:06:19;;;;;;;64.85;32.42;;;;;;;3.29;81.73;100007.31;6208786;23;20016;-71
2022/12/24 06:08:47;;;;;;;62.60;31.40;;;;;;;3.36;81.54;100010.28;6209660;22;20029;-68
2022/12/24 06:11:16;;;;;;;61.03;30.75;;;;;;;3.35;81.36;100017.41;6208449;23;20016;-71
2022/12/24 06:13:43;;;;;;;59.15;31.20;;;;;;;3.42;81.11;100025.66;6203084;23;20032;-70
2022/12/24 06:16:16;;;;;;;58.35;29.60;;;;;;;3.43;81.52;100039.75;6208557;23;20068;-71
2022/12/24 06:18:44;;;;;;;61.17;30.50;;;;;;;3.37;81.37;100035.81;6207729;23;20056;-67
2022/12/24 06:21:11;;;;;;;63.88;29.80;;;;;;;3.43;81.29;100037.13;6207513;23;20067;-67
2022/12/24 06:23:40;;;;;;;61.55;31.33;;;;;;;3.30;81.12;100034.66;6209314;23;20044;-71
2022/12/24 06:26:10;;;;;;;58.58;30.27;;;;;;;3.50;81.12;100041.75;6225783;23;20051;-71
2022/12/24 06:28:37;;;;;;;61.58;31.63;;;;;;;3.50;81.00;100049.72;6234842;23;20005;-70
2022/12/24 06:31:05;;;;;;;55.17;29.65;;;;;;;3.59;80.83;100045.44;6211363;23;20031;-71
2022/12/24 06:33:33;;;;;;;55.95;29.27;;;;;;;3.43;80.84;100045.91;6211337;23;20021;-70
2022/12/24 06:35:59;;;;;;;58.28;29.98;;;;;;;3.50;80.96;100051.53;6211451;22;20020;-71
2022/12/24 06:38:29;;;;;;;64.00;30.25;;;;;;;3.39;81.08;100047.97;6211606;22;20040;-69
2022/12/24 06:40:55;;;;;;;56.67;27.63;;;;;;;3.28;81.38;100048.06;6211251;22;20016;-68
2022/12/24 06:43:22;;;;;;;59.55;29.92;;;;;;;3.22;81.90;100043.25;6209844;23;20031;-71
2022/12/24 06:53:54;;;;;;;61.97;29.73;;;;;;;3.41;81.50;100063.75;6170859;22;20250;-68
2022/12/24 06:56:20;;;;;;;58.83;29.08;;;;;;;3.23;81.30;100073.25;6182078;23;20025;-66
2022/12/24 06:58:47;;;;;;;64.03;30.35;;;;;;;3.17;81.85;100081.72;6181453;23;20013;-67
2022/12/24 07:01:16;;;;;;;54.00;28.65;;;;;;;3.30;82.00;100085.03;6143665;22;20025;-69
2022/12/24 07:03:43;;;;;;;63.58;30.48;;;;;;;3.23;81.69;100081.22;6181601;23;20065;-68
2022/12/24 07:06:19;;;;;;;64.00;30.20;;;;;;;3.47;81.50;100081.78;6181426;23;20064;-70
2022/12/24 07:11:22;;;;;;;60.30;29.58;;;;;;;3.59;80.88;100091.38;6171281;23;20005;-67
2022/12/24 07:13:49;;;;;;;59.22;29.48;;;;;;;3.58;80.89;100094.13;6241642;22;20029;-69
2022/12/24 07:16:16;;;;;;;58.95;28.13;;;;;;;3.47;81.39;100103.00;6241810;22;20024;-67
2022/12/24 07:18:43;;;;;;;58.17;26.73;;;;;;;3.38;81.47;100102.00;6216138;22;20020;-69
2022/12/24 07:21:10;;;;;;;58.22;28.17;;;;;;;3.55;80.98;100102.34;6214523;22;20032;-69
2022/12/24 07:23:36;;;;;;;57.60;26.80;;;;;;;3.49;81.51;100116.16;6206858;22;20013;-70
2022/12/24 07:26:04;;;;;;;63.15;27.52;;;;;;;3.53;81.07;100123.72;6209297;22;20009;-69
2022/12/24 07:31:01;;;;;;;55.75;26.33;;;;;;;3.68;81.30;100129.53;6237232;22;20269;-68
2022/12/24 07:42:17;;;;;;;53.38;27.08;;;;;;;3.44;81.41;100126.28;6159974;22;20044;-67
2022/12/24 09:03:13;;;;;;;61.30;27.25;;;;;;;3.88;80.86;100198.63;6274315;22;20011;-69
2022/12/24 09:14:13;;;;;;;;;;;;;;;3.74;81.48;100223.69;6233826;22;20012;-70
2022/12/24 09:16:39;;;;;;;55.03;24.35;;;;;;;3.99;80.83;100233.06;6239031;23;19948;-70
2022/12/24 09:19:06;;;;;;;66.25;27.08;;;;;;;4.09;80.73;100233.97;6238314;23;20039;-69
2022/12/24 09:24:19;;;;;;;59.40;27.83;;;;;;;3.84;81.31;100232.56;6165799;23;20030;-70
2022/12/24 09:26:48;;;;;;;62.50;26.55;;;;;;;3.81;81.40;100236.31;6149889;23;20036;-68
2022/12/24 09:29:22;;;;;;;70.05;28.70;;;;;;;4.02;81.27;100249.56;6148909;23;20009;-67
2022/12/24 09:31:49;;;;;;;57.53;26.58;;;;;;;4.00;80.99;100256.84;6150955;22;20029;-67
2022/12/24 09:34:16;;;;;;;57.33;26.40;;;;;;;3.83;81.58;100255.59;6207697;22;20040;-68
2022/12/24 09:36:42;;;;;;;57.17;27.65;;;;;;;3.89;81.74;100264.00;6199065;22;20017;-70
2022/12/24 09:39:09;;;;;;;61.60;28.27;;;;;;;3.94;81.50;100260.00;6207837;22;20009;-70
2022/12/24 09:42:01;;;;;;;63.80;28.88;;;;;;;4.09;81.35;100260.53;6207533;22;20032;-69
2022/12/24 09:44:46;;;;;;;64.80;27.90;;;;;;;4.27;80.85;100261.59;6237896;22;20016;-67
2022/12/24 09:47:32;;;;;;;65.78;29.73;;;;;;;4.31;80.87;100265.72;6230137;22;20008;-70
2022/12/24 09:50:01;;;;;;;64.82;28.95;;;;;;;4.43;80.65;100278.94;6237066;22;20013;-69
2022/12/24 09:52:34;;;;;;;63.97;28.98;;;;;;;4.42;80.88;100277.25;6236679;22;20065;-68
2022/12/24 09:55:16;;;;;;;59.80;29.25;;;;;;;4.26;81.02;100283.81;6236742;22;20016;-69
2022/12/24 09:57:45;;;;;;;65.78;28.48;;;;;;;4.54;80.52;100286.81;6238062;23;20020;-70
2022/12/24 10:00:34;;;;;;;55.47;27.88;;;;;;;4.38;81.00;100291.75;6238145;22;20004;-72
2022/12/24 10:03:05;;;;;;;65.85;32.10;;;;;;;4.46;81.34;100294.63;6236379;22;20077;-71
2022/12/24 10:06:01;;;;;;;45.30;21.83;;;;;;;4.48;80.86;100297.97;6237835;23;20040;-71
2022/12/24 10:08:40;;;;;;;49.25;26.13;;;;;;;4.37;81.16;100308.63;6193857;23;20009;-72
2022/12/24 10:11:40;;;;;;;53.53;26.27;;;;;;;4.52;81.18;100310.00;6237023;22;20044;-70
2022/12/24 10:14:25;;;;;;;55.80;26.45;;;;;;;4.45;80.82;100312.38;6237526;23;20008;-70
2022/12/24 10:16:57;;;;;;;49.80;24.60;;;;;;;4.50;81.21;100315.47;6235302;23;20016;-71
2022/12/24 10:19:44;;;;;;;53.28;25.02;;;;;;;4.57;80.68;100318.44;6237881;23;20012;-70
2022/12/24 10:22:55;;;;;;;49.28;25.23;;;;;;;4.48;80.77;100320.03;6237142;23;20008;-72
2022/12/24 10:25:44;;;;;;;47.80;24.63;;;;;;;4.42;81.19;100317.94;6190123;23;20040;-70
2022/12/24 10:28:15;;;;;;;46.13;24.08;;;;;;;4.46;81.19;100326.50;6236364;23;20024;-72
2022/12/24 10:30:43;;;;;;;41.53;22.52;;;;;;;4.48;81.41;100329.84;6235939;23;20024;-71
2022/12/24 10:33:18;;;;;;;48.50;23.25;;;;;;;4.64;80.93;100334.69;6233791;23;20052;-72
2022/12/24 10:35:52;;;;;;;42.83;23.45;;;;;;;4.58;81.08;100346.69;6235125;23;20025;-71
2022/12/24 10:38:18;;;;;;;45.95;22.70;;;;;;;4.67;80.85;100345.91;6234601;23;20072;-71
2022/12/24 10:40:49;;;;;;;43.42;21.60;;;;;;;4.59;81.08;100348.38;6235232;23;20012;-70
2022/12/24 10:43:21;;;;;;;50.92;26.27;;;;;;;4.64;81.29;100351.47;6233506;23;20044;-72
2022/12/24 10:45:53;;;;;;;38.45;22.05;;;;;;;4.32;82.61;100344.41;6232479;23;20100;-71
2022/12/24 10:48:28;;;;;;;38.17;19.30;;;;;;;4.61;81.63;100349.06;6234357;23;20031;-70
2022/12/24 10:51:03;;;;;;;36.17;19.50;;;;;;;4.75;81.48;100347.91;6233004;23;20035;-71
2022/12/24 10:53:50;;;;;;;31.33;17.15;;;;;;;4.48;81.75;100351.94;6234807;23;20013;-73
2022/12/24 10:56:18;;;;;;;25.08;15.45;;;;;;;4.52;82.24;100355.16;6235699;23;20040;-70
2022/12/24 10:58:50;;;;;;;28.17;15.75;;;;;;;4.86;81.46;100357.59;6233471;23;20036;-71
2022/12/24 11:01:17;;;;;;;31.98;17.40;;;;;;;4.55;82.17;100360.22;6231358;23;20024;-72
2022/12/24 11:03:44;;;;;;;30.50;14.75;;;;;;;4.67;81.83;100369.81;6231905;23;20029;-71
2022/12/24 11:06:14;;;;;;;28.15;15.68;;;;;;;4.89;81.57;100373.28;6231949;23;20035;-71
2022/12/24 11:08:43;;;;;;;35.75;17.17;;;;;;;4.85;81.14;100375.38;6228615;23;20040;-71
2022/12/24 11:11:14;;;;;;;25.85;15.25;;;;;;;4.78;81.29;100374.22;6231174;23;20051;-71
2022/12/24 11:13:51;;;;;;;31.65;16.80;;;;;;;4.97;80.78;100378.78;6231633;23;20031;-72
2022/12/24 11:16:35;;;;;;;26.33;15.00;;;;;;;4.91;80.80;100384.66;6229817;23;20052;-72
2022/12/24 11:19:04;;;;;;;28.90;15.00;;;;;;;4.80;81.27;100377.59;6231092;23;20051;-71
2022/12/24 11:21:35;;;;;;;26.65;13.77;;;;;;;4.69;81.20;100386.47;6233364;23;20036;-69
2022/12/24 11:24:25;;;;;;;24.50;13.77;;;;;;;4.72;81.56;100369.41;6233835;23;20079;-72
2022/12/24 11:26:51;;;;;;;20.25;12.73;;;;;;;4.95;81.45;100376.25;6231994;23;20044;-71
2022/12/24 11:29:26;;;;;;;26.50;13.07;;;;;;;4.95;81.09;100386.06;6229771;23;20076;-71
2022/12/24 11:32:15;;;;;;;22.83;12.23;;;;;;;5.12;81.10;100377.47;6226449;23;20068;-70
2022/12/24 11:34:42;;;;;;;24.95;12.57;;;;;;;4.97;81.17;100384.97;6229123;23;20076;-69
2022/12/24 11:37:15;;;;;;;22.13;11.88;;;;;;;4.82;81.77;100387.09;6229067;23;20044;-72
2022/12/24 11:39:48;;;;;;;19.85;12.10;;;;;;;5.45;80.50;100388.78;6229480;23;20028;-71
2022/12/24 11:42:30;;;;;;;20.17;11.88;;;;;;;5.50;80.17;100383.91;6229698;23;20353;-72
2022/12/24 11:44:59;;;;;;;20.38;11.95;;;;;;;5.25;80.44;100393.22;6213190;23;20028;-70
2022/12/24 11:47:34;;;;;;;16.90;10.88;;;;;;;5.23;80.94;100393.31;6212184;23;20043;-72
2022/12/24 11:50:30;;;;;;;15.85;10.25;;;;;;;5.18;80.88;100398.22;6211252;23;20029;-70
2022/12/24 11:53:03;;;;;;;26.55;12.65;;;;;;;5.19;81.08;100393.72;6227177;23;20091;-72
2022/12/24 11:55:59;;;;;;;22.70;12.18;;;;;;;5.45;80.67;100404.75;6227191;23;20024;-72
2022/12/24 11:58:43;;;;;;;19.50;12.32;;;;;;;5.63;79.50;100405.81;6228593;23;20095;-72
2022/12/24 12:01:28;;;;;;;19.45;11.48;;;;;;;5.66;79.64;100407.31;6228381;23;20048;-72
2022/12/24 12:04:00;;;;;;;21.67;11.93;;;;;;;5.67;79.62;100404.53;6227227;23;20055;-72
2022/12/24 12:06:43;;;;;;;24.15;15.30;;;;;;;5.46;79.91;100409.94;6228231;23;20023;-71
2022/12/24 12:09:19;;;;;;;24.42;13.93;;;;;;;5.83;79.44;100411.16;6230395;23;20032;-72
2022/12/24 12:11:51;;;;;;;17.85;11.85;;;;;;;5.89;79.18;100423.91;6227139;23;20073;-71
2022/12/24 12:14:24;;;;;;;21.80;12.27;;;;;;;5.93;78.67;100415.50;6231893;23;20035;-71
2022/12/24 12:17:30;;;;;;;22.33;12.93;;;;;;;5.78;78.92;100416.91;6231939;23;20001;-72
2022/12/24 12:20:03;;;;;;;21.35;11.50;;;;;;;5.76;79.06;100424.16;6231891;23;20039;-71
2022/12/24 12:23:08;;;;;;;24.05;12.90;;;;;;;5.90;78.87;100426.44;6233914;23;20025;-69
2022/12/24 12:25:50;;;;;;;27.08;12.88;;;;;;;6.12;78.45;100429.84;6142303;23;20025;-70
2022/12/24 12:28:25;;;;;;;22.33;12.00;;;;;;;6.10;78.85;100427.31;6142099;23;20046;-72
2022/12/24 12:31:08;;;;;;;18.88;11.88;;;;;;;6.16;78.47;100432.09;6142548;23;20033;-71
2022/12/24 12:33:54;;;;;;;21.85;10.98;;;;;;;6.00;79.31;100439.78;6139771;23;20026;-73
2022/12/24 12:36:27;;;;;;;25.60;10.68;;;;;;;6.08;79.04;100437.28;6141353;23;20029;-72
2022/12/24 12:38:54;;;;;;;20.52;10.50;;;;;;;5.98;79.28;100433.75;6140210;23;20025;-70
2022/12/24 12:41:36;;;;;;;31.73;12.40;;;;;;;6.02;79.49;100444.97;6140580;23;20026;-71
2022/12/24 12:44:27;;;;;;;25.05;10.15;;;;;;;5.84;79.96;100442.13;6138639;23;20045;-70
2022/12/24 12:47:07;;;;;;;28.92;9.45;;;;;;;5.65;80.10;100448.22;6137867;23;20049;-69
2022/12/24 12:50:08;;;;;;;34.53;9.13;;;;;;;5.86;80.26;100446.31;6138073;23;20022;-71
2022/12/24 12:52:53;;;;;;;31.40;10.35;;;;;;;5.93;80.31;100457.28;6133915;23;20101;-71
2022/12/24 12:55:31;;;;;;;27.83;10.27;;;;;;;5.92;79.78;100455.59;6136002;23;20038;-73
2022/12/24 12:58:09;;;;;;;36.67;9.55;;;;;;;5.78;80.57;100451.50;6137398;23;20026;-73
2022/12/24 13:00:40;;;;;;;31.35;9.68;;;;;;;5.81;79.98;100458.38;6223859;23;20079;-71
2022/12/24 13:03:21;;;;;;;29.20;9.52;;;;;;;5.66;80.91;100460.56;6217495;23;20071;-72
2022/12/24 13:06:22;;;;;;;32.30;9.85;;;;;;;5.92;80.45;100455.59;6245302;23;20123;-72
2022/12/24 13:09:12;;;;;;;40.53;18.33;;;;;;;5.90;80.35;100465.53;6228772;23;20028;-72
2022/12/24 13:12:01;;;;;;;41.80;15.73;;;;;;;6.04;79.91;100467.81;6227814;23;20104;-71
2022/12/24 13:14:53;;;;;;;36.50;12.98;;;;;;;5.71;81.15;100458.34;6226272;23;20047;-72
2022/12/24 13:17:40;;;;;;;42.50;11.25;;;;;;;6.09;80.21;100456.75;6225574;23;20043;-70
2022/12/24 13:20:18;;;;;;;44.67;10.80;;;;;;;6.13;79.74;100460.81;6223719;23;20021;-71
2022/12/24 13:23:00;;;;;;;34.55;10.50;;;;;;;6.16;80.34;100469.38;6219979;23;20098;-71
2022/12/24 13:25:38;;;;;;;;;;;;;;;6.03;80.27;100466.13;6221212;23;20021;-73
2022/12/24 13:28:19;;;;;;;35.65;10.13;;;;;;;5.95;80.45;100465.97;6222688;23;20351;-71
2022/12/24 13:30:47;;;;;;;48.25;11.27;;;;;;;6.16;80.37;100465.88;6217280;23;20028;-72
2022/12/24 13:33:32;;;;;;;39.15;10.18;;;;;;;6.29;80.29;100465.63;6215735;23;20342;-72
2022/12/24 13:36:03;;;;;;;46.15;11.02;;;;;;;6.51;79.63;100486.69;6218377;23;20024;-73
2022/12/24 13:38:56;;;;;;;35.58;9.90;;;;;;;6.39;79.42;100486.00;6219321;23;20022;-73
2022/12/24 13:41:35;;;;;;;52.45;10.80;;;;;;;6.36;79.59;100485.44;6220841;23;20037;-74
2022/12/24 13:44:08;;;;;;;53.47;9.98;;;;;;;6.21;80.32;100491.09;6222172;23;20020;-71
2022/12/24 13:46:57;;;;;;;32.33;9.18;;;;;;;6.38;79.63;100497.63;6212239;23;20067;-71
2022/12/24 13:49:32;;;;;;;41.38;10.13;;;;;;;6.38;79.86;100502.94;6221994;23;20043;-72
2022/12/24 13:52:29;;;;;;;48.97;10.48;;;;;;;6.23;79.38;100506.97;6223695;23;20422;-72
2022/12/24 13:54:55;;;;;;;55.00;10.43;;;;;;;6.14;79.69;100516.59;6210214;23;20023;-73
2022/12/24 13:57:34;;;;;;;43.30;10.20;;;;;;;6.27;79.48;100513.72;6215973;23;20104;-72
2022/12/24 14:00:03;;;;;;;42.30;9.52;;;;;;;5.96;80.29;100520.91;6222110;22;20044;-72
2022/12/24 14:02:35;;;;;;;54.00;10.05;;;;;;;5.98;80.35;100524.28;6221599;23;20020;-72
2022/12/24 14:05:14;;;;;;;64.13;10.80;;;;;;;6.17;79.41;100524.31;6223286;23;20024;-72
2022/12/24 14:07:49;;;;;;;51.00;10.77;;;;;;;6.07;80.10;100528.78;6222389;23;20048;-73
2022/12/24 14:10:27;;;;;;;71.00;10.57;;;;;;;5.91;80.49;100531.13;6223933;23;20025;-73
2022/12/24 14:12:53;;;;;;;49.42;11.07;;;;;;;5.91;80.34;100537.31;6221261;23;20033;-72
2022/12/24 14:15:48;;;;;;;51.65;11.25;;;;;;;5.79;80.69;100540.19;6223239;23;20051;-72
2022/12/24 14:18:20;;;;;;;59.83;11.35;;;;;;;5.87;80.63;100543.00;6223367;23;20036;-72
2022/12/24 14:20:52;;;;;;;62.10;10.68;;;;;;;5.79;80.46;100545.50;6223849;23;20044;-73
2022/12/24 14:23:42;;;;;;;60.88;11.75;;;;;;;5.95;80.02;100540.53;6224696;23;20099;-73
2022/12/24 14:26:15;;;;;;;53.90;10.82;;;;;;;5.92;79.88;100546.13;6180404;23;20024;-72
2022/12/24 14:28:49;;;;;;;52.72;10.70;;;;;;;5.94;79.46;100547.69;6222819;23;20091;-71
2022/12/24 14:31:17;;;;;;;57.85;10.75;;;;;;;5.91;79.85;100555.94;6222793;23;20175;-73
2022/12/24 14:33:44;;;;;;;52.22;12.43;;;;;;;5.79;80.17;100561.47;6222694;23;20024;-72
2022/12/24 14:36:17;;;;;;;57.90;12.73;;;;;;;5.80;79.90;100568.47;6222652;23;20051;-73
2022/12/24 14:38:44;;;;;;;58.08;11.77;;;;;;;5.83;79.82;100568.22;6221591;23;20072;-72
2022/12/24 14:41:24;;;;;;;65.82;12.27;;;;;;;5.67;80.40;100568.72;6222346;23;20059;-71
2022/12/24 14:44:22;;;;;;;62.53;12.95;;;;;;;5.63;80.17;100567.28;6221683;23;20039;-72
2022/12/24 14:46:55;;;;;;;56.42;13.27;;;;;;;5.71;79.88;100576.28;6222133;23;20092;-72
2022/12/24 14:49:56;;;;;;;61.47;13.93;;;;;;;5.69;79.90;100582.72;6223453;23;20135;-72
2022/12/24 14:52:47;;;;;;;61.47;13.30;;;;;;;5.67;80.33;100584.69;6218788;23;20016;-73
2022/12/24 14:55:40;;;;;;;71.25;14.02;;;;;;;5.64;80.28;100591.09;6224476;23;20027;-72
2022/12/24 14:58:24;;;;;;;63.65;14.40;;;;;;;5.63;80.12;100591.22;6223880;23;20024;-71
2022/12/24 15:00:56;;;;;;;61.40;13.48;;;;;;;5.60;80.04;100594.16;6224905;23;20075;-70
2022/12/24 15:03:27;;;;;;;60.75;14.15;;;;;;;5.53;80.18;100601.84;6223589;23;20017;-72
2022/12/24 15:06:05;;;;;;;63.63;16.75;;;;;;;5.45;80.14;100602.47;6208068;23;20028;-71
2022/12/24 15:08:39;;;;;;;74.93;17.35;;;;;;;5.39;80.58;100603.00;6219306;23;20029;-71
2022/12/24 15:11:09;;;;;;;61.17;17.05;;;;;;;5.43;80.45;100616.88;6221641;23;20344;-71
2022/12/24 15:13:39;;;;;;;64.50;16.38;;;;;;;5.40;80.39;100614.47;6222826;23;20016;-72
2022/12/24 15:16:12;;;;;;;71.15;16.48;;;;;;;5.31;80.84;100621.41;6232157;23;20036;-71
2022/12/24 15:18:47;;;;;;;53.85;15.02;;;;;;;5.39;80.53;100621.63;6222913;23;20040;-71
2022/12/24 15:21:18;;;;;;;66.15;16.20;;;;;;;5.32;80.76;100622.25;6220304;23;20076;-70
2022/12/24 15:23:50;;;;;;;57.67;15.68;;;;;;;5.30;80.80;100627.72;6220240;23;20395;-70
2022/12/24 15:26:28;;;;;;;94.57;17.52;;;;;;;5.26;80.58;100634.25;6219874;23;20031;-72
2022/12/24 15:28:57;;;;;;;68.78;15.85;;;;;;;5.04;81.69;100629.88;6215743;23;20361;-73
2022/12/24 15:31:30;;;;;;;79.38;19.85;;;;;;;5.09;81.44;100640.97;6214931;23;20017;-72
2022/12/24 15:33:58;;;;;;;62.58;17.25;;;;;;;5.08;81.48;100636.63;6160823;23;20108;-72
2022/12/24 15:36:30;;;;;;;62.85;16.45;;;;;;;5.11;81.25;100636.38;6147337;23;20018;-73
2022/12/24 15:38:59;;;;;;;82.10;16.30;;;;;;;5.09;81.36;100633.00;6146592;23;20030;-72
2022/12/24 15:42:12;;;;;;;53.50;16.00;;;;;;;4.95;81.35;100646.59;6146158;23;20044;-72
2022/12/24 15:44:28;;;;;;;71.63;15.77;;;;;;;5.12;81.05;100642.53;6146221;23;20501;-70
2022/12/24 15:46:59;;;;;;;74.85;16.08;;;;;;;5.06;80.91;100646.53;6148072;23;20025;-72
2022/12/24 15:49:31;;;;;;;62.88;12.45;;;;;;;5.12;80.67;100654.03;6147426;23;20025;-71
2022/12/24 15:52:14;;;;;;;58.45;16.08;;;;;;;4.91;81.46;100659.28;6146825;23;20026;-73
2022/12/24 15:54:43;;;;;;;70.10;16.30;;;;;;;4.96;81.15;100656.25;6143522;23;20100;-72
2022/12/24 15:57:13;;;;;;;64.88;15.75;;;;;;;4.76;81.95;100661.38;6146565;23;20022;-73
2022/12/24 15:59:40;;;;;;;57.20;15.02;;;;;;;4.93;81.71;100654.66;6145328;23;20077;-71
2022/12/24 16:02:30;;;;;;;63.72;15.23;;;;;;;4.91;81.37;100656.63;6148646;23;20093;-72
2022/12/24 16:05:17;;;;;;;72.25;16.65;;;;;;;4.85;81.24;100662.44;6145076;23;20066;-72
2022/12/24 16:08:13;;;;;;;69.88;16.70;;;;;;;4.99;80.92;100674.59;6148458;23;20029;-69
2022/12/24 16:10:46;;;;;;;72.90;17.83;;;;;;;4.84;81.42;100671.38;6143771;23;20026;-74
2022/12/24 16:13:50;;;;;;;71.82;18.00;;;;;;;4.75;81.86;100672.13;6147370;23;20078;-73
2022/12/24 16:16:20;;;;;;;90.15;17.25;;;;;;;4.72;81.72;100678.53;6148932;23;20021;-71
2022/12/24 16:18:57;;;;;;;79.95;18.95;;;;;;;4.88;81.69;100690.59;6164204;23;20021;-72
2022/12/24 16:21:34;;;;;;;77.53;17.83;;;;;;;4.90;81.37;100691.28;6159938;23;20088;-72
2022/12/24 16:24:21;;;;;;;71.65;17.98;;;;;;;4.96;81.34;100696.13;6164494;23;20052;-71
2022/12/24 16:26:47;;;;;;;64.53;18.10;;;;;;;4.91;80.78;100698.31;6167728;23;20108;-71
2022/12/24 16:29:15;;;;;;;75.60;17.85;;;;;;;4.88;81.31;100694.09;6164725;23;20017;-70
2022/12/24 16:31:46;;;;;;;84.30;18.60;;;;;;;4.82;81.27;100694.56;6169864;23;20029;-73
2022/12/24 16:34:14;;;;;;;53.97;14.23;;;;;;;4.97;80.93;100697.81;6199005;23;20027;-71
2022/12/24 16:36:44;;;;;;;80.50;18.30;;;;;;;4.92;80.76;100694.69;6190564;23;20028;-71
2022/12/24 16:39:29;;;;;;;75.00;20.65;;;;;;;4.89;81.22;100705.56;6190487;23;20024;-72
2022/12/24 16:44:44;;;;;;;86.22;19.73;;;;;;;4.92;80.63;100695.53;6207651;23;20040;-72
2022/12/24 16:47:20;;;;;;;74.35;19.73;;;;;;;4.95;80.56;100705.06;6225579;23;20104;-71
2022/12/24 16:49:47;;;;;;;66.55;20.30;;;;;;;4.82;80.99;100705.22;6223081;23;20017;-72